createdAt,value
2022-10-29T00:00:35.287Z,100626.63
2022-10-29T00:02:57.706Z,100622.63
2022-10-29T00:04:59.519Z,100622.09
2022-10-29T00:07:01.348Z,100609.06
2022-10-29T00:09:05.012Z,100627.16
2022-10-29T00:11:09.552Z,100623.53
2022-10-29T00:13:11.419Z,100622.03
2022-10-29T00:15:13.824Z,100621.19
2022-10-29T00:17:15.998Z,100617.00
2022-10-29T00:19:17.856Z,100615.63
2022-10-29T00:21:21.588Z,100616.53
2022-10-29T00:23:23.524Z,100612.22
2022-10-29T00:25:25.287Z,100606.72
2022-10-29T00:27:27.483Z,100608.25
2022-10-29T00:29:29.277Z,100603.13
2022-10-29T00:31:31.460Z,100599.31
2022-10-29T00:33:34.160Z,100613.72
2022-10-29T00:35:35.999Z,100609.09
2022-10-29T00:37:37.874Z,100602.59
2022-10-29T00:39:40.076Z,100586.81
2022-10-29T00:41:42.838Z,100606.84
2022-10-29T00:43:49.429Z,100601.75
2022-10-29T00:45:54.197Z,100598.78
2022-10-29T00:47:56.229Z,100602.44
2022-10-29T00:50:03.966Z,100597.31
2022-10-29T00:52:07.707Z,100596.28
2022-10-29T00:54:12.219Z,100600.22
2022-10-29T00:56:14.758Z,100591.63
2022-10-29T00:58:17.744Z,100583.81
2022-10-29T01:00:21.137Z,100585.84
2022-10-29T01:02:24.479Z,100584.25
2022-10-29T01:04:27.495Z,100581.25
2022-10-29T01:06:31.014Z,100584.03
2022-10-29T01:08:32.825Z,100581.19
2022-10-29T01:10:56.685Z,100582.53
2022-10-29T01:13:01.710Z,100580.03
2022-10-29T01:15:28.241Z,100583.38
2022-10-29T01:17:39.720Z,100587.31
2022-10-29T01:19:53.581Z,100580.72
2022-10-29T01:21:58.213Z,100598.81
2022-10-29T01:24:25.316Z,100590.41
2022-10-29T01:27:04.415Z,100598.19
2022-10-29T01:29:40.191Z,100595.75
2022-10-29T01:32:02.247Z,100587.28
2022-10-29T01:34:13.325Z,100588.66
2022-10-29T01:36:28.143Z,100599.09
2022-10-29T01:38:43.727Z,100593.19
2022-10-29T01:41:06.198Z,100593.66
2022-10-29T01:43:14.109Z,100591.91
2022-10-29T01:45:41.737Z,100584.84
2022-10-29T01:47:54.797Z,100579.75
2022-10-29T01:50:02.338Z,100579.28
2022-10-29T01:52:07.374Z,100579.38
2022-10-29T01:54:11.514Z,100590.03
2022-10-29T01:56:13.680Z,100580.66
2022-10-29T02:00:57.369Z,100580.88
2022-10-29T02:03:44.115Z,100583.66
2022-10-29T02:06:14.734Z,100577.53
2022-10-29T02:08:37.278Z,100570.00
2022-10-29T02:10:48.487Z,100575.31
2022-10-29T02:12:53.700Z,100565.22
2022-10-29T02:15:04.606Z,100571.34
2022-10-29T02:17:07.485Z,100562.47
2022-10-29T02:19:09.372Z,100553.78
2022-10-29T02:21:15.169Z,100553.78
2022-10-29T02:23:17.501Z,100563.50
2022-10-29T02:25:19.509Z,100551.22
2022-10-29T02:27:22.408Z,100550.88
2022-10-29T02:29:24.406Z,100540.69
2022-10-29T02:31:26.197Z,100540.47
2022-10-29T02:33:28.392Z,100541.19
2022-10-29T02:35:30.225Z,100531.78
2022-10-29T02:37:32.069Z,100531.31
2022-10-29T02:39:34.429Z,100528.56
2022-10-29T02:41:36.342Z,100524.97
2022-10-29T02:43:38.116Z,100517.88
2022-10-29T02:45:40.313Z,100529.00
2022-10-29T02:47:42.182Z,100520.66
2022-10-29T02:49:44.002Z,100526.22
2022-10-29T02:51:46.341Z,100510.69
2022-10-29T02:53:48.127Z,100501.69
2022-10-29T02:55:50.116Z,100503.97
2022-10-29T02:57:52.285Z,100496.94
2022-10-29T02:59:54.091Z,100508.59
2022-10-29T03:01:56.050Z,100510.09
2022-10-29T03:03:58.615Z,100516.31
2022-10-29T03:06:00.544Z,100515.84
2022-10-29T03:08:02.376Z,100507.97
2022-10-29T03:10:05.647Z,100508.34
2022-10-29T03:12:08.066Z,100499.78
2022-10-29T03:14:09.937Z,100502.13
2022-10-29T03:16:12.303Z,100493.44
2022-10-29T03:18:14.274Z,100492.06
2022-10-29T03:20:16.298Z,100505.69
2022-10-29T03:22:18.423Z,100495.28
2022-10-29T03:24:20.237Z,100483.53
2022-10-29T03:26:22.081Z,100474.34
2022-10-29T03:28:25.541Z,100480.38
2022-10-29T03:30:27.630Z,100490.19
2022-10-29T03:32:29.421Z,100493.59
2022-10-29T03:34:31.575Z,100478.53
2022-10-29T03:36:33.456Z,100481.69
2022-10-29T03:38:35.465Z,100482.47
2022-10-29T03:40:37.562Z,100473.34
2022-10-29T03:42:39.507Z,100468.47
2022-10-29T03:44:41.289Z,100461.31
2022-10-29T03:46:43.408Z,100479.34
2022-10-29T03:48:45.413Z,100475.13
2022-10-29T03:51:01.641Z,100472.34
2022-10-29T03:53:03.781Z,100469.41
2022-10-29T03:55:06.270Z,100485.56
2022-10-29T03:57:08.303Z,100480.94
2022-10-29T04:01:32.301Z,100493.19
2022-10-29T04:03:35.950Z,100496.91
2022-10-29T04:05:38.127Z,100499.22
2022-10-29T04:07:39.926Z,100496.91
2022-10-29T04:09:42.079Z,100491.13
2022-10-29T04:11:44.222Z,100504.31
2022-10-29T04:13:46.296Z,100493.47
2022-10-29T04:15:48.117Z,100493.47
2022-10-29T04:17:51.477Z,100482.78
2022-10-29T04:19:53.166Z,100483.88
2022-10-29T04:29:04.518Z,100467.00
2022-10-29T04:31:09.828Z,100469.97
2022-10-29T04:33:12.036Z,100468.97
2022-10-29T04:35:13.873Z,100467.38
2022-10-29T04:37:15.991Z,100465.19
2022-10-29T04:39:20.968Z,100463.13
2022-10-29T04:41:25.446Z,100474.44
2022-10-29T04:43:28.921Z,100472.03
2022-10-29T04:45:30.948Z,100449.47
2022-10-29T04:47:33.120Z,100474.38
2022-10-29T04:49:35.253Z,100466.81
2022-10-29T04:51:37.167Z,100473.72
2022-10-29T04:53:40.055Z,100472.47
2022-10-29T04:55:43.679Z,100465.63
2022-10-29T04:57:51.789Z,100472.19
2022-10-29T04:59:53.591Z,100465.16
2022-10-29T05:01:55.787Z,100473.19
2022-10-29T05:04:00.068Z,100456.28
2022-10-29T05:06:04.033Z,100478.56
2022-10-29T05:08:06.791Z,100473.00
2022-10-29T05:10:08.950Z,100469.84
2022-10-29T05:12:10.726Z,100468.88
2022-10-29T05:14:13.022Z,100481.78
2022-10-29T05:16:14.786Z,100485.84
2022-10-29T05:18:16.683Z,100483.59
2022-10-29T05:20:18.832Z,100477.94
2022-10-29T05:22:20.840Z,100503.25
2022-10-29T05:24:22.667Z,100489.44
2022-10-29T05:26:24.855Z,100495.56
2022-10-29T05:28:26.697Z,100503.81
2022-10-29T05:30:28.537Z,100504.94
2022-10-29T05:32:30.668Z,100518.09
2022-10-29T05:34:32.461Z,100512.88
2022-10-29T05:36:34.827Z,100495.44
2022-10-29T05:38:37.370Z,100504.03
2022-10-29T05:40:40.382Z,100500.72
2022-10-29T05:42:47.134Z,100507.91
2022-10-29T05:44:49.665Z,100508.72
2022-10-29T05:46:51.459Z,100490.31
2022-10-29T05:48:53.517Z,100495.97
2022-10-29T05:50:58.221Z,100509.38
2022-10-29T05:53:06.133Z,100507.81
2022-10-29T05:55:08.659Z,100500.66
2022-10-29T05:57:10.740Z,100500.91
2022-10-29T05:59:12.670Z,100503.31
2022-10-29T06:01:14.893Z,100483.03
2022-10-29T06:03:22.130Z,100484.53
2022-10-29T06:05:24.834Z,100488.06
2022-10-29T06:07:26.858Z,100480.25
2022-10-29T06:09:29.010Z,100488.06
2022-10-29T06:11:30.984Z,100489.66
2022-10-29T06:13:33.153Z,100486.44
2022-10-29T06:15:35.444Z,100485.81
2022-10-29T06:17:47.161Z,100480.75
2022-10-29T06:19:49.223Z,100474.88
2022-10-29T06:21:52.519Z,100483.38
2022-10-29T06:23:56.015Z,100463.81
2022-10-29T06:26:01.887Z,100475.84
2022-10-29T06:28:06.650Z,100473.19
2022-10-29T06:30:09.184Z,100472.00
2022-10-29T06:32:11.041Z,100496.44
2022-10-29T06:34:14.794Z,100490.56
2022-10-29T06:36:17.590Z,100500.63
2022-10-29T06:38:19.363Z,100495.78
2022-10-29T06:40:21.651Z,100501.53
2022-10-29T06:42:23.507Z,100503.47
2022-10-29T06:44:25.390Z,100494.56
2022-10-29T06:46:27.596Z,100499.91
2022-10-29T06:48:29.468Z,100503.22
2022-10-29T06:50:31.720Z,100518.13
2022-10-29T06:52:34.517Z,100517.03
2022-10-29T06:54:36.352Z,100514.19
2022-10-29T06:56:38.143Z,100518.50
2022-10-29T06:58:40.396Z,100528.41
2022-10-29T07:00:43.166Z,100517.41
2022-10-29T07:02:45.021Z,100515.94
2022-10-29T07:04:47.199Z,100517.66
2022-10-29T07:06:49.034Z,100526.19
2022-10-29T07:08:50.885Z,100525.09
2022-10-29T07:10:54.236Z,100518.34
2022-10-29T07:12:56.524Z,100522.75
2022-10-29T07:14:58.318Z,100504.34
2022-10-29T07:17:00.638Z,100497.91
2022-10-29T07:19:03.951Z,100502.72
2022-10-29T07:21:06.029Z,100509.19
2022-10-29T07:23:08.524Z,100502.34
2022-10-29T07:25:10.365Z,100506.38
2022-10-29T07:27:12.338Z,100492.22
2022-10-29T07:29:14.638Z,100497.03
2022-10-29T07:31:16.430Z,100505.94
2022-10-29T07:33:19.083Z,100500.72
2022-10-29T07:35:21.322Z,100506.75
2022-10-29T07:37:23.430Z,100504.34
2022-10-29T07:39:25.273Z,100501.78
2022-10-29T07:41:27.585Z,100515.38
2022-10-29T07:43:29.370Z,100511.78
2022-10-29T07:45:31.482Z,100512.09
2022-10-29T07:47:34.027Z,100497.03
2022-10-29T07:49:35.972Z,100492.13
2022-10-29T07:51:37.891Z,100489.25
2022-10-29T07:53:40.030Z,100501.41
2022-10-29T07:55:41.886Z,100501.84
2022-10-29T07:57:43.752Z,100504.25
2022-10-29T07:59:47.074Z,100505.91
2022-10-29T08:01:49.098Z,100501.06
2022-10-29T08:03:51.417Z,100498.53
2022-10-29T08:05:57.253Z,100491.44
2022-10-29T08:07:59.946Z,100510.78
2022-10-29T08:10:02.058Z,100501.91
2022-10-29T08:12:07.171Z,100500.66
2022-10-29T08:14:09.073Z,100499.50
2022-10-29T08:16:10.863Z,100471.78
2022-10-29T08:18:17.946Z,100483.00
2022-10-29T08:20:21.197Z,100480.13
2022-10-29T08:22:23.062Z,100457.69
2022-10-29T08:24:25.431Z,100497.41
2022-10-29T08:26:27.241Z,100499.13
2022-10-29T08:28:30.507Z,100489.91
2022-10-29T08:30:35.519Z,100497.53
2022-10-29T08:32:45.431Z,100515.59
2022-10-29T08:34:47.259Z,100499.13
2022-10-29T08:36:49.492Z,100523.97
2022-10-29T08:38:51.454Z,100516.31
2022-10-29T08:41:23.806Z,100521.06
2022-10-29T08:43:34.940Z,100511.38
2022-10-29T08:45:46.164Z,100523.22
2022-10-29T08:48:27.885Z,100495.25
2022-10-29T08:50:41.694Z,100512.25
2022-10-29T08:52:53.303Z,100496.31
2022-10-29T08:55:15.598Z,100500.34
2022-10-29T08:57:22.306Z,100491.50
2022-10-29T08:59:26.219Z,100457.78
2022-10-29T09:01:28.326Z,100478.63
2022-10-29T09:03:30.651Z,100505.13
2022-10-29T09:06:08.764Z,100507.56
2022-10-29T09:08:10.613Z,100528.97
2022-10-29T09:10:33.419Z,100531.78
2022-10-29T09:13:12.255Z,100487.19
2022-10-29T09:15:45.814Z,100527.06
2022-10-29T09:18:11.734Z,100521.47
2022-10-29T09:20:33.178Z,100520.84
2022-10-29T09:22:47.707Z,100520.88
2022-10-29T09:25:13.943Z,100518.03
2022-10-29T09:27:29.520Z,100500.41
2022-10-29T09:30:05.698Z,100518.34
2022-10-29T09:32:16.760Z,100511.09
2022-10-29T09:34:38.335Z,100483.78
2022-10-29T09:36:43.887Z,100514.75
2022-10-29T09:38:58.725Z,100488.16
2022-10-29T09:41:03.634Z,100511.09
2022-10-29T09:43:27.360Z,100507.06
2022-10-29T09:45:35.262Z,100505.50
2022-10-29T09:47:46.316Z,100514.69
2022-10-29T09:50:45.973Z,100521.41
2022-10-29T09:52:49.036Z,100516.59
2022-10-29T09:54:52.700Z,100543.25
2022-10-29T09:56:56.512Z,100534.78
2022-10-29T09:59:27.671Z,100554.38
2022-10-29T10:01:29.950Z,100551.16
2022-10-29T10:03:42.894Z,100561.00
2022-10-29T10:06:04.292Z,100559.59
2022-10-29T10:08:14.720Z,100560.13
2022-10-29T10:10:22.411Z,100552.78
2022-10-29T10:12:28.324Z,100567.34
2022-10-29T10:14:31.409Z,100560.91
2022-10-29T10:16:33.606Z,100550.34
2022-10-29T10:21:07.780Z,100530.25
2022-10-29T10:23:29.255Z,100537.94
2022-10-29T10:25:37.540Z,100535.72
2022-10-29T10:27:41.055Z,100542.75
2022-10-29T10:29:42.848Z,100535.56
2022-10-29T10:31:49.622Z,100551.09
2022-10-29T10:33:54.578Z,100535.41
2022-10-29T10:36:02.608Z,100544.00
2022-10-29T10:38:12.711Z,100555.38
2022-10-29T10:40:24.720Z,100564.50
2022-10-29T10:42:28.633Z,100571.06
2022-10-29T10:44:31.143Z,100582.97
2022-10-29T10:46:40.520Z,100578.31
2022-10-29T10:48:42.547Z,100585.03
2022-10-29T10:50:44.387Z,100560.06
2022-10-29T10:52:47.358Z,100551.56
2022-10-29T10:55:00.546Z,100566.56
2022-10-29T10:57:18.687Z,100562.53
2022-10-29T10:59:21.541Z,100532.41
2022-10-29T11:01:45.322Z,100557.34
2022-10-29T11:03:54.891Z,100537.66
2022-10-29T11:06:07.330Z,100548.56
2022-10-29T11:08:17.539Z,100548.84
2022-10-29T11:10:24.673Z,100545.97
2022-10-29T11:12:29.863Z,100547.78
2022-10-29T11:14:36.812Z,100533.00
2022-10-29T11:16:49.084Z,100550.91
2022-10-29T11:19:13.000Z,100544.03
2022-10-29T11:21:35.480Z,100545.28
2022-10-29T11:23:46.473Z,100527.94
2022-10-29T11:26:00.266Z,100530.31
2022-10-29T11:28:29.700Z,100556.25
2022-10-29T11:30:39.117Z,100543.66
2022-10-29T11:35:44.101Z,100558.09
2022-10-29T11:37:56.855Z,100553.84
2022-10-29T11:40:04.357Z,100563.31
2022-10-29T11:42:09.921Z,100556.81
2022-10-29T11:44:14.298Z,100555.28
2022-10-29T11:46:44.509Z,100583.88
2022-10-29T11:49:09.405Z,100572.78
2022-10-29T11:51:20.216Z,100579.06
2022-10-29T11:53:58.372Z,100577.88
2022-10-29T11:56:39.779Z,100575.03
2022-10-29T11:59:14.175Z,100552.63
2022-10-29T12:01:16.098Z,100561.44
2022-10-29T12:03:32.655Z,100568.53
2022-10-29T12:05:40.844Z,100566.16
2022-10-29T12:07:51.871Z,100562.53
2022-10-29T12:10:31.450Z,100552.22
2022-10-29T12:12:39.525Z,100548.06
2022-10-29T12:14:46.816Z,100546.00
2022-10-29T12:17:07.539Z,100542.06
2022-10-29T12:19:48.674Z,100545.28
2022-10-29T12:22:11.406Z,100552.63
2022-10-29T12:24:44.050Z,100537.34
2022-10-29T12:27:04.867Z,100525.28
2022-10-29T12:29:26.623Z,100551.75
2022-10-29T12:31:36.457Z,100545.28
2022-10-29T12:34:01.404Z,100540.44
2022-10-29T12:36:06.427Z,100554.72
2022-10-29T12:38:26.340Z,100549.88
2022-10-29T12:40:34.860Z,100555.94
2022-10-29T12:42:36.831Z,100553.13
2022-10-29T12:44:48.018Z,100566.09
2022-10-29T12:46:58.387Z,100553.19
2022-10-29T12:49:18.235Z,100568.50
2022-10-29T12:51:41.215Z,100563.63
2022-10-29T12:54:04.260Z,100558.81
2022-10-29T12:56:07.651Z,100564.38
2022-10-29T12:58:44.968Z,100559.94
2022-10-29T13:00:47.802Z,100543.91
2022-10-29T13:02:51.748Z,100550.41
2022-10-29T13:05:05.910Z,100550.63
2022-10-29T13:09:47.287Z,100543.69
2022-10-29T13:12:01.323Z,100559.19
2022-10-29T13:14:03.599Z,100566.19
2022-10-29T13:16:14.927Z,100555.97
2022-10-29T13:18:38.964Z,100560.56
2022-10-29T13:20:48.621Z,100556.66
2022-10-29T13:22:56.328Z,100535.41
2022-10-29T13:25:41.666Z,100560.88
2022-10-29T13:27:43.726Z,100549.63
2022-10-29T13:29:49.254Z,100541.19
2022-10-29T13:31:53.180Z,100546.03
2022-10-29T13:33:55.722Z,100528.47
2022-10-29T13:36:16.871Z,100529.94
2022-10-29T13:38:19.943Z,100546.91
2022-10-29T13:40:31.179Z,100570.69
2022-10-29T13:42:33.602Z,100550.34
2022-10-29T13:44:38.359Z,100558.88
2022-10-29T13:47:04.059Z,100564.03
2022-10-29T13:49:13.391Z,100554.31
2022-10-29T13:51:21.125Z,100546.03
2022-10-29T13:53:34.437Z,100563.19
2022-10-29T13:55:36.648Z,100545.22
2022-10-29T13:57:57.600Z,100562.03
2022-10-29T14:00:15.804Z,100567.34
2022-10-29T14:02:30.233Z,100566.88
2022-10-29T14:04:39.254Z,100529.00
2022-10-29T14:06:41.915Z,100565.16
2022-10-29T14:08:55.779Z,100569.69
2022-10-29T14:10:59.610Z,100562.31
2022-10-29T14:13:07.845Z,100563.91
2022-10-29T14:15:13.452Z,100567.97
2022-10-29T14:17:18.924Z,100564.09
2022-10-29T14:19:21.888Z,100562.16
2022-10-29T14:21:29.637Z,100555.59
2022-10-29T14:23:33.286Z,100527.41
2022-10-29T14:25:36.308Z,100565.59
2022-10-29T14:27:38.265Z,100567.09
2022-10-29T14:29:40.465Z,100557.69
2022-10-29T14:31:42.532Z,100570.06
2022-10-29T14:33:46.350Z,100574.38
2022-10-29T14:35:49.028Z,100561.13
2022-10-29T14:37:51.785Z,100566.22
2022-10-29T14:39:59.081Z,100564.78
2022-10-29T14:42:02.843Z,100560.13
2022-10-29T14:44:16.205Z,100542.56
2022-10-29T14:46:23.865Z,100533.56
2022-10-29T14:48:26.114Z,100552.81
2022-10-29T14:50:31.584Z,100573.69
2022-10-29T14:52:38.614Z,100589.31
2022-10-29T14:54:41.790Z,100591.53
2022-10-29T14:56:48.059Z,100580.97
2022-10-29T14:58:49.968Z,100568.28
2022-10-29T15:00:57.162Z,100577.91
2022-10-29T15:02:59.755Z,100579.34
2022-10-29T15:05:07.316Z,100580.81
2022-10-29T15:07:27.290Z,100572.75
2022-10-29T15:09:29.368Z,100563.72
2022-10-29T15:11:39.197Z,100576.41
2022-10-29T15:13:41.346Z,100527.34
2022-10-29T15:15:53.563Z,100578.38
2022-10-29T15:18:16.066Z,100581.78
2022-10-29T15:20:25.404Z,100595.38
2022-10-29T15:22:38.107Z,100580.28
2022-10-29T15:24:47.989Z,100596.84
2022-10-29T15:27:00.362Z,100597.28
2022-10-29T15:29:10.940Z,100596.31
2022-10-29T15:31:46.567Z,100599.75
2022-10-29T15:33:53.880Z,100587.56
2022-10-29T15:36:01.783Z,100599.94
2022-10-29T15:38:04.137Z,100601.94
2022-10-29T15:40:18.022Z,100598.72
2022-10-29T15:42:22.472Z,100606.34
2022-10-29T15:44:35.422Z,100606.41
2022-10-29T15:46:51.180Z,100593.28
2022-10-29T15:48:53.912Z,100596.59
2022-10-29T15:50:57.703Z,100601.44
2022-10-29T15:53:05.918Z,100593.50
2022-10-29T15:55:26.224Z,100588.28
2022-10-29T15:57:28.800Z,100544.09
2022-10-29T15:59:31.256Z,100588.28
2022-10-29T16:01:33.251Z,100547.06
2022-10-29T16:03:39.384Z,100567.81
2022-10-29T16:05:44.851Z,100598.06
2022-10-29T16:07:48.232Z,100578.34
2022-10-29T16:09:53.913Z,100601.53
2022-10-29T16:11:56.238Z,100601.81
2022-10-29T16:13:59.160Z,100587.94
2022-10-29T16:16:00.891Z,100599.47
2022-10-29T16:18:03.105Z,100567.00
2022-10-29T16:20:05.720Z,100600.41
2022-10-29T16:22:16.853Z,100579.44
2022-10-29T16:24:19.090Z,100584.94
2022-10-29T16:26:25.698Z,100599.97
2022-10-29T16:28:27.668Z,100583.38
2022-10-29T16:30:30.026Z,100592.22
2022-10-29T16:32:33.271Z,100598.78
2022-10-29T16:34:35.176Z,100591.59
2022-10-29T16:36:37.285Z,100591.44
2022-10-29T16:38:39.335Z,100592.94
2022-10-29T16:40:42.741Z,100546.69
2022-10-29T16:42:45.233Z,100598.69
2022-10-29T16:44:47.121Z,100570.91
2022-10-29T16:46:49.050Z,100585.28
2022-10-29T16:48:51.270Z,100589.53
2022-10-29T16:50:53.105Z,100605.09
2022-10-29T16:52:59.988Z,100601.03
2022-10-29T16:55:02.428Z,100590.50
2022-10-29T16:57:04.382Z,100598.97
2022-10-29T16:59:06.240Z,100554.22
2022-10-29T17:01:10.800Z,100587.25
2022-10-29T17:03:15.155Z,100569.28
2022-10-29T17:05:17.184Z,100556.09
2022-10-29T17:07:19.437Z,100591.56
2022-10-29T17:09:25.570Z,100589.53
2022-10-29T17:11:27.564Z,100610.09
2022-10-29T17:13:29.864Z,100584.38
2022-10-29T17:15:31.770Z,100604.50
2022-10-29T17:17:33.626Z,100625.09
2022-10-29T17:19:35.824Z,100624.28
2022-10-29T17:21:37.702Z,100615.50
2022-10-29T17:23:39.663Z,100609.09
2022-10-29T17:25:41.936Z,100625.91
2022-10-29T17:27:43.778Z,100621.97
2022-10-29T17:29:45.648Z,100599.66
2022-10-29T17:31:49.007Z,100572.09
2022-10-29T17:33:50.944Z,100615.09
2022-10-29T17:36:07.651Z,100603.91
2022-10-29T17:38:10.343Z,100610.38
2022-10-29T17:40:12.388Z,100596.59
2022-10-29T17:42:14.198Z,100615.84
2022-10-29T17:44:16.809Z,100600.56
2022-10-29T17:46:18.717Z,100616.00
2022-10-29T17:48:24.042Z,100604.41
2022-10-29T17:50:27.548Z,100591.13
2022-10-29T17:52:29.496Z,100592.31
2022-10-29T17:54:33.924Z,100594.56
2022-10-29T17:56:37.994Z,100603.38
2022-10-29T17:58:39.926Z,100601.03
2022-10-29T18:00:41.782Z,100597.03
2022-10-29T18:02:44.426Z,100607.94
2022-10-29T18:04:46.383Z,100586.44
2022-10-29T18:06:48.312Z,100600.34
2022-10-29T18:08:50.553Z,100613.91
2022-10-29T18:10:53.697Z,100617.16
2022-10-29T18:12:55.594Z,100615.63
2022-10-29T18:14:58.191Z,100610.69
2022-10-29T18:17:01.130Z,100612.22
2022-10-29T18:19:03.937Z,100616.16
2022-10-29T18:21:07.408Z,100616.94
2022-10-29T18:23:09.306Z,100603.91
2022-10-29T18:25:12.034Z,100621.72
2022-10-29T18:27:14.267Z,100613.16
2022-10-29T18:29:16.199Z,100630.53
2022-10-29T18:31:18.819Z,100608.72
2022-10-29T18:33:21.343Z,100607.88
2022-10-29T18:35:23.493Z,100628.72
2022-10-29T18:37:25.300Z,100615.22
2022-10-29T18:39:27.488Z,100603.44
2022-10-29T18:41:29.622Z,100617.13
2022-10-29T18:43:33.168Z,100621.66
2022-10-29T18:45:36.474Z,100621.53
2022-10-29T18:47:38.267Z,100636.72
2022-10-29T18:49:41.102Z,100635.34
2022-10-29T18:51:43.264Z,100643.25
2022-10-29T18:53:46.041Z,100638.03
2022-10-29T18:55:54.350Z,100638.81
2022-10-29T18:57:56.579Z,100634.22
2022-10-29T18:59:58.440Z,100649.94
2022-10-29T19:02:00.360Z,100643.00
2022-10-29T19:04:05.568Z,100650.44
2022-10-29T19:06:13.008Z,100652.41
2022-10-29T19:08:15.006Z,100649.50
2022-10-29T19:10:17.220Z,100652.50
2022-10-29T19:12:19.157Z,100652.97
2022-10-29T19:14:20.957Z,100644.06
2022-10-29T19:16:24.062Z,100659.69
2022-10-29T19:18:25.923Z,100644.31
2022-10-29T19:20:29.161Z,100658.91
2022-10-29T19:22:31.582Z,100654.81
2022-10-29T19:24:33.486Z,100665.03
2022-10-29T19:26:36.004Z,100664.78
2022-10-29T19:28:39.366Z,100664.78
2022-10-29T19:30:41.634Z,100660.97
2022-10-29T19:32:43.830Z,100652.03
2022-10-29T19:34:46.371Z,100667.69
2022-10-29T19:36:48.163Z,100647.63
2022-10-29T19:38:50.231Z,100657.91
2022-10-29T19:40:52.636Z,100661.06
2022-10-29T19:42:55.518Z,100667.78
2022-10-29T19:44:57.304Z,100653.88
2022-10-29T19:46:59.548Z,100661.06
2022-10-29T19:49:01.464Z,100659.56
2022-10-29T19:51:03.770Z,100649.94
2022-10-29T19:53:06.332Z,100652.16
2022-10-29T19:55:09.324Z,100655.72
2022-10-29T19:57:11.294Z,100648.09
2022-10-29T19:59:13.491Z,100653.19
2022-10-29T20:01:17.032Z,100657.13
2022-10-29T20:03:19.502Z,100636.94
2022-10-29T20:05:21.798Z,100643.22
2022-10-29T20:07:23.751Z,100639.97
2022-10-29T20:09:25.666Z,100649.91
2022-10-29T20:11:27.828Z,100660.22
2022-10-29T20:13:29.692Z,100659.84
2022-10-29T20:15:32.073Z,100640.16
2022-10-29T20:17:36.103Z,100650.56
2022-10-29T20:19:38.050Z,100651.38
2022-10-29T20:21:40.229Z,100618.81
2022-10-29T20:23:44.954Z,100650.16
2022-10-29T20:25:46.845Z,100661.16
2022-10-29T20:27:48.755Z,100652.47
2022-10-29T20:29:50.993Z,100640.47
2022-10-29T20:31:52.938Z,100661.31
2022-10-29T20:33:59.971Z,100656.53
2022-10-29T20:36:02.198Z,100650.50
2022-10-29T20:38:04.770Z,100642.59
2022-10-29T20:40:07.166Z,100658.41
2022-10-29T20:42:09.355Z,100643.53
2022-10-29T20:44:11.202Z,100648.75
2022-10-29T20:46:13.090Z,100657.34
2022-10-29T20:48:15.386Z,100634.22
2022-10-29T20:50:17.342Z,100610.56
2022-10-29T20:52:20.428Z,100650.66
2022-10-29T20:54:22.970Z,100647.19
2022-10-29T20:56:27.283Z,100651.91
2022-10-29T20:58:29.702Z,100636.81
2022-10-29T21:00:31.906Z,100658.97
2022-10-29T21:02:33.819Z,100646.13
2022-10-29T21:04:35.639Z,100644.94
2022-10-29T21:06:37.879Z,100650.31
2022-10-29T21:08:40.275Z,100658.72
2022-10-29T21:10:42.187Z,100647.47
2022-10-29T21:12:44.329Z,100647.63
2022-10-29T21:14:46.370Z,100643.44
2022-10-29T21:16:48.237Z,100630.84
2022-10-29T21:18:56.202Z,100639.88
2022-10-29T21:21:03.329Z,100639.88
2022-10-29T21:23:05.355Z,100626.22
2022-10-29T21:25:07.886Z,100629.94
2022-10-29T21:27:10.036Z,100626.22
2022-10-29T21:29:11.924Z,100637.31
2022-10-29T21:31:14.210Z,100635.69
2022-10-29T21:33:16.125Z,100616.69
2022-10-29T21:35:18.100Z,100619.47
2022-10-29T21:37:20.274Z,100630.13
2022-10-29T21:39:22.404Z,100647.97
2022-10-29T21:41:24.202Z,100639.63
2022-10-29T21:43:26.615Z,100635.22
2022-10-29T21:45:28.482Z,100641.00
2022-10-29T21:47:30.620Z,100650.50
2022-10-29T21:49:32.893Z,100646.91
2022-10-29T21:51:34.808Z,100643.00
2022-10-29T21:53:37.012Z,100628.06
2022-10-29T21:55:39.734Z,100637.66
2022-10-29T21:57:44.934Z,100649.09
2022-10-29T21:59:46.736Z,100640.19
2022-10-29T22:01:49.106Z,100620.81
2022-10-29T22:03:51.045Z,100650.94
2022-10-29T22:05:53.041Z,100639.34
2022-10-29T22:07:57.762Z,100632.94
2022-10-29T22:09:59.911Z,100638.81
2022-10-29T22:12:01.747Z,100630.72
2022-10-29T22:14:03.920Z,100643.22
2022-10-29T22:16:07.687Z,100631.66
2022-10-29T22:18:09.545Z,100639.09
2022-10-29T22:20:12.187Z,100637.53
2022-10-29T22:22:14.004Z,100633.13
2022-10-29T22:24:16.106Z,100623.88
2022-10-29T22:26:20.555Z,100613.75
2022-10-29T22:28:22.331Z,100609.56
2022-10-29T22:30:24.184Z,100614.53
2022-10-29T22:32:26.403Z,100604.38
2022-10-29T22:34:28.202Z,100598.22
2022-10-29T22:36:31.934Z,100597.09
2022-10-29T22:38:34.256Z,100586.66
2022-10-29T22:40:40.923Z,100605.75
2022-10-29T22:42:42.769Z,100606.56
2022-10-29T22:44:44.929Z,100604.16
2022-10-29T22:46:46.975Z,100608.06
2022-10-29T22:48:49.752Z,100610.63
2022-10-29T22:51:09.869Z,100598.94
2022-10-29T22:53:12.047Z,100614.94
2022-10-29T22:55:14.013Z,100614.81
2022-10-29T22:57:16.161Z,100618.81
2022-10-29T22:59:18.019Z,100612.63
2022-10-29T23:01:25.430Z,100593.13
2022-10-29T23:03:27.725Z,100603.53
2022-10-29T23:05:29.527Z,100603.31
2022-10-29T23:09:34.485Z,100611.97
2022-10-29T23:11:39.175Z,100622.78
2022-10-29T23:13:41.135Z,100629.44
2022-10-29T23:15:47.571Z,100637.75
2022-10-29T23:17:53.417Z,100628.16
2022-10-29T23:19:56.347Z,100639.28
2022-10-29T23:21:58.502Z,100639.63
2022-10-29T23:24:00.481Z,100638.81
2022-10-29T23:26:04.111Z,100627.13
2022-10-29T23:28:06.389Z,100639.34
2022-10-29T23:30:09.027Z,100635.13
2022-10-29T23:32:10.934Z,100626.66
2022-10-29T23:34:13.126Z,100628.25
2022-10-29T23:36:16.236Z,100622.03
2022-10-29T23:38:18.097Z,100619.59
2022-10-29T23:40:20.290Z,100619.47
2022-10-29T23:42:22.130Z,100615.13
2022-10-29T23:44:24.036Z,100616.94
2022-10-29T23:46:26.235Z,100621.34
2022-10-29T23:48:28.692Z,100612.06
2022-10-29T23:50:30.645Z,100606.75
2022-10-29T23:52:32.773Z,100607.22
2022-10-29T23:54:34.574Z,100611.50
2022-10-29T23:56:36.557Z,100573.97
2022-10-29T23:58:38.707Z,100615.16
